createdAt,value
2023-04-11T00:00:35.132Z,17.83
2023-04-11T00:01:48.060Z,19.18
2023-04-11T00:04:17.543Z,19.17
2023-04-11T00:05:50.051Z,17.82
2023-04-11T00:06:47.879Z,19.18
2023-04-11T00:09:18.181Z,19.17
2023-04-11T00:11:05.119Z,17.82
2023-04-11T00:11:48.116Z,19.16
2023-04-11T00:14:17.040Z,19.16
2023-04-11T00:16:20.156Z,17.82
2023-04-11T00:16:46.476Z,19.14
2023-04-11T00:19:16.963Z,19.15
2023-04-11T00:21:35.571Z,17.81
2023-04-11T00:21:46.455Z,19.14
2023-04-11T00:24:16.319Z,19.14
2023-04-11T00:26:45.644Z,19.14
2023-04-11T00:26:51.069Z,17.82
2023-04-11T00:29:15.492Z,19.13
2023-04-11T00:31:44.901Z,19.13
2023-04-11T00:32:06.382Z,17.81
2023-04-11T00:34:14.785Z,19.12
2023-04-11T00:36:44.011Z,19.12
2023-04-11T00:37:22.147Z,17.81
2023-04-11T00:39:12.509Z,19.13
2023-04-11T00:41:42.302Z,19.11
2023-04-11T00:42:38.467Z,17.81
2023-04-11T00:44:12.238Z,19.11
2023-04-11T00:46:44.277Z,19.09
2023-04-11T00:47:54.110Z,17.80
2023-04-11T00:49:15.768Z,19.10
2023-04-11T00:51:45.324Z,19.09
2023-04-11T00:53:09.131Z,17.80
2023-04-11T00:54:13.899Z,19.09
2023-04-11T00:56:43.790Z,19.09
2023-04-11T00:58:24.065Z,17.80
2023-04-11T00:59:13.740Z,19.10
2023-04-11T01:01:44.087Z,19.09
2023-04-11T01:03:38.994Z,17.79
2023-04-11T01:04:14.470Z,19.09
2023-04-11T01:06:44.296Z,19.08
2023-04-11T01:08:54.171Z,17.79
2023-04-11T01:09:15.431Z,19.08
2023-04-11T01:11:44.550Z,19.08
2023-04-11T01:14:09.195Z,17.79
2023-04-11T01:14:13.937Z,19.07
2023-04-11T01:16:43.868Z,19.07
2023-04-11T01:19:13.787Z,19.07
2023-04-11T01:19:24.074Z,17.79
2023-04-11T01:21:43.590Z,19.07
2023-04-11T01:24:13.491Z,19.06
2023-04-11T01:24:39.084Z,17.79
2023-04-11T01:26:43.512Z,19.05
2023-04-11T01:29:15.805Z,19.04
2023-04-11T01:29:54.050Z,17.77
2023-04-11T01:31:46.359Z,19.05
2023-04-11T01:34:16.328Z,19.03
2023-04-11T01:35:09.117Z,17.77
2023-04-11T01:36:45.858Z,19.03
2023-04-11T01:39:13.675Z,19.03
2023-04-11T01:40:24.115Z,17.77
2023-04-11T01:41:41.829Z,19.02
2023-04-11T01:44:10.081Z,19.02
2023-04-11T01:45:38.847Z,17.77
2023-04-11T01:46:40.410Z,19.01
2023-04-11T01:49:10.005Z,19.00
2023-04-11T01:50:54.130Z,17.76
2023-04-11T01:51:38.252Z,19.00
2023-04-11T01:54:08.140Z,19.00
2023-04-11T01:56:09.354Z,17.77
2023-04-11T01:56:39.101Z,19.00
2023-04-11T01:59:08.171Z,18.99
2023-04-11T02:01:25.156Z,17.77
2023-04-11T02:01:37.263Z,19.00
2023-04-11T02:04:07.858Z,18.99
2023-04-11T02:06:36.831Z,18.99
2023-04-11T02:06:40.101Z,17.76
2023-04-11T02:09:06.697Z,18.99
2023-04-11T02:11:36.585Z,18.98
2023-04-11T02:11:55.078Z,17.77
2023-04-11T02:14:05.013Z,18.98
2023-04-11T02:16:33.665Z,18.97
2023-04-11T02:17:10.081Z,17.76
2023-04-11T02:19:02.371Z,18.96
2023-04-11T02:21:32.265Z,18.97
2023-04-11T02:22:25.164Z,17.76
2023-04-11T02:24:01.745Z,18.96
2023-04-11T02:26:30.650Z,18.95
2023-04-11T02:27:40.098Z,17.75
2023-04-11T02:29:01.052Z,18.96
2023-04-11T02:31:31.073Z,18.95
2023-04-11T02:32:55.457Z,17.75
2023-04-11T02:34:01.584Z,18.95
2023-04-11T02:36:30.718Z,18.94
2023-04-11T02:38:11.465Z,17.75
2023-04-11T02:38:58.956Z,18.94
2023-04-11T02:41:28.978Z,18.95
2023-04-11T02:43:27.452Z,17.73
2023-04-11T02:43:58.000Z,18.94
2023-04-11T02:46:27.463Z,18.94
2023-04-11T02:48:42.837Z,17.73
2023-04-11T02:48:56.581Z,18.93
2023-04-11T02:51:27.327Z,18.93
2023-04-11T02:53:57.393Z,18.94
2023-04-11T02:53:58.119Z,17.73
2023-04-11T02:56:26.910Z,18.93
2023-04-11T02:58:58.474Z,18.94
2023-04-11T02:59:14.118Z,17.73
2023-04-11T03:01:29.493Z,18.94
2023-04-11T03:03:58.230Z,18.93
2023-04-11T03:04:29.185Z,17.71
2023-04-11T03:06:33.990Z,18.94
2023-04-11T03:09:03.923Z,18.94
2023-04-11T03:09:52.153Z,17.70
2023-04-11T03:11:33.928Z,18.95
2023-04-11T03:14:04.845Z,18.94
2023-04-11T03:15:07.083Z,17.69
2023-04-11T03:16:34.758Z,18.94
2023-04-11T03:19:03.746Z,18.94
2023-04-11T03:20:22.135Z,17.69
2023-04-11T03:21:34.083Z,18.95
2023-04-11T03:24:04.198Z,18.97
2023-04-11T03:25:37.130Z,17.70
2023-04-11T03:26:34.054Z,18.98
2023-04-11T03:29:10.142Z,18.99
2023-04-11T03:30:53.091Z,17.70
2023-04-11T03:31:54.728Z,19.02
2023-04-11T03:34:25.159Z,19.04
2023-04-11T03:36:07.925Z,17.70
2023-04-11T03:36:57.746Z,19.07
2023-04-11T03:39:26.958Z,19.08
2023-04-11T03:41:24.177Z,17.69
2023-04-11T03:41:58.240Z,19.11
2023-04-11T03:44:28.105Z,19.11
2023-04-11T03:46:40.165Z,17.69
2023-04-11T03:46:58.355Z,19.16
2023-04-11T03:49:33.062Z,19.19
2023-04-11T03:51:55.167Z,17.68
2023-04-11T03:52:01.991Z,19.22
2023-04-11T03:54:31.855Z,19.24
2023-04-11T03:57:01.890Z,19.25
2023-04-11T03:57:11.141Z,17.68
2023-04-11T03:59:34.213Z,19.27
2023-04-11T04:02:10.128Z,19.30
2023-04-11T04:02:26.310Z,17.66
2023-04-11T04:04:45.995Z,19.31
2023-04-11T04:07:28.067Z,19.33
2023-04-11T04:07:47.509Z,17.66
2023-04-11T04:10:08.146Z,19.33
2023-04-11T04:12:39.028Z,19.33
2023-04-11T04:13:19.096Z,17.65
2023-04-11T04:15:14.295Z,19.40
2023-04-11T04:17:47.202Z,19.39
2023-04-11T04:18:43.101Z,17.64
2023-04-11T04:20:24.516Z,19.37
2023-04-11T04:22:58.659Z,19.39
2023-04-11T04:23:58.335Z,17.65
2023-04-11T04:25:43.684Z,19.34
2023-04-11T04:28:14.024Z,19.27
2023-04-11T04:29:36.089Z,17.63
2023-04-11T04:30:43.940Z,19.18
2023-04-11T04:33:13.470Z,19.14
2023-04-11T04:34:52.135Z,17.63
2023-04-11T04:35:51.089Z,19.13
2023-04-11T04:38:21.027Z,19.13
2023-04-11T04:40:09.905Z,17.64
2023-04-11T04:40:55.552Z,19.12
2023-04-11T04:43:25.852Z,19.10
2023-04-11T04:45:33.081Z,17.63
2023-04-11T04:46:24.743Z,19.08
2023-04-11T04:48:55.496Z,19.04
2023-04-11T04:50:48.962Z,17.62
2023-04-11T04:51:25.273Z,19.00
2023-04-11T04:53:54.343Z,18.96
2023-04-11T04:56:04.188Z,17.62
2023-04-11T04:56:23.081Z,18.91
2023-04-11T04:58:54.030Z,18.87
2023-04-11T05:01:22.132Z,17.63
2023-04-11T05:01:24.094Z,18.81
2023-04-11T05:03:57.127Z,18.78
2023-04-11T05:06:39.834Z,18.76
2023-04-11T05:06:40.084Z,17.63
2023-04-11T05:09:10.252Z,18.74
2023-04-11T05:11:40.826Z,18.72
2023-04-11T05:11:55.391Z,17.62
2023-04-11T05:14:10.713Z,18.73
2023-04-11T05:16:41.485Z,18.70
2023-04-11T05:17:12.430Z,17.62
2023-04-11T05:19:18.019Z,18.70
2023-04-11T05:21:51.277Z,18.69
2023-04-11T05:22:28.160Z,17.61
2023-04-11T05:24:21.257Z,18.69
2023-04-11T05:26:50.998Z,18.69
2023-04-11T05:27:43.093Z,17.60
2023-04-11T05:29:21.132Z,18.68
2023-04-11T05:31:51.023Z,18.68
2023-04-11T05:33:01.918Z,17.59
2023-04-11T05:34:20.637Z,18.67
2023-04-11T05:36:50.735Z,18.66
2023-04-11T05:38:17.074Z,17.59
2023-04-11T05:39:21.733Z,18.65
2023-04-11T05:41:51.178Z,18.66
2023-04-11T05:44:20.031Z,18.67
2023-04-11T05:46:49.374Z,18.67
2023-04-11T05:49:18.186Z,18.64
2023-04-11T05:51:46.464Z,18.62
2023-04-11T05:54:15.806Z,18.61
2023-04-11T05:56:46.046Z,18.62
2023-04-11T05:59:17.496Z,18.62
2023-04-11T06:01:48.681Z,18.64
2023-04-11T06:04:19.188Z,18.65
2023-04-11T06:06:49.284Z,18.66
2023-04-11T06:09:17.980Z,18.67
2023-04-11T06:11:48.276Z,18.68
2023-04-11T06:14:18.531Z,18.69
2023-04-11T06:16:48.852Z,18.71
2023-04-11T06:19:18.912Z,18.73
2023-04-11T06:21:48.001Z,18.75
2023-04-11T06:24:17.705Z,18.78
2023-04-11T06:26:46.666Z,18.80
2023-04-11T06:29:16.032Z,18.81
2023-04-11T06:31:46.522Z,18.82
2023-04-11T06:34:16.964Z,18.84
2023-04-11T06:36:47.274Z,18.86
2023-04-11T06:39:17.602Z,18.88
2023-04-11T06:41:47.595Z,18.92
2023-04-11T06:44:24.927Z,18.94
2023-04-11T06:46:55.347Z,18.96
2023-04-11T06:49:25.607Z,18.99
2023-04-11T06:51:55.992Z,19.01
2023-04-11T06:54:24.500Z,19.04
2023-04-11T06:56:53.525Z,19.07
2023-04-11T06:59:22.381Z,19.10
2023-04-11T07:01:52.990Z,19.14
2023-04-11T07:04:22.626Z,19.16
2023-04-11T07:06:52.970Z,19.23
2023-04-11T07:09:22.976Z,19.29
2023-04-11T07:11:51.685Z,19.32
2023-04-11T07:14:22.021Z,19.36
2023-04-11T07:16:52.191Z,19.43
2023-04-11T07:19:22.239Z,19.46
2023-04-11T07:21:52.028Z,19.52
2023-04-11T07:24:20.960Z,19.58
2023-04-11T07:26:49.889Z,19.61
2023-04-11T07:29:19.241Z,19.62
2023-04-11T07:31:48.821Z,19.74
2023-04-11T07:34:16.538Z,19.89
2023-04-11T07:36:45.213Z,19.95
2023-04-11T07:39:15.493Z,20.05
2023-04-11T07:41:46.025Z,20.14
2023-04-11T07:44:15.433Z,20.16
2023-04-11T07:46:45.800Z,20.20
2023-04-11T07:49:16.214Z,20.24
2023-04-11T07:51:44.898Z,20.35
2023-04-11T07:54:13.085Z,20.40
2023-04-11T07:56:41.469Z,20.43
2023-04-11T07:59:10.440Z,20.47
2023-04-11T08:01:39.568Z,20.49
2023-04-11T08:04:08.072Z,20.49
2023-04-11T08:06:36.934Z,20.46
2023-04-11T08:09:06.962Z,20.52
2023-04-11T08:11:35.810Z,20.55
2023-04-11T08:14:05.244Z,20.76
2023-04-11T08:16:34.867Z,21.11
2023-04-11T08:19:03.745Z,21.52
2023-04-11T08:21:32.924Z,22.01
2023-04-11T08:24:02.278Z,22.43
2023-04-11T08:26:32.542Z,22.68
2023-04-11T08:29:02.889Z,23.02
2023-04-11T08:31:33.202Z,23.42
2023-04-11T08:34:06.152Z,23.83
2023-04-11T08:36:37.335Z,24.17
2023-04-11T08:39:07.652Z,24.49
2023-04-11T08:41:37.357Z,24.87
2023-04-11T08:44:06.861Z,24.97
2023-04-11T08:46:36.444Z,24.80
2023-04-11T08:49:04.498Z,24.52
2023-04-11T08:51:33.197Z,24.29
2023-04-11T08:54:03.576Z,24.07
2023-04-11T08:56:33.558Z,23.80
2023-04-11T08:59:03.192Z,23.59
2023-04-11T09:01:33.436Z,23.60
2023-04-11T09:04:02.260Z,23.98
2023-04-11T09:06:32.509Z,24.39
2023-04-11T09:09:02.469Z,24.61
2023-04-11T09:11:31.487Z,24.48
2023-04-11T09:14:00.260Z,24.43
2023-04-11T09:16:30.573Z,24.61
2023-04-11T09:19:00.876Z,24.53
2023-04-11T09:21:31.231Z,24.37
2023-04-11T09:24:01.640Z,24.69
2023-04-11T09:26:31.771Z,25.28
2023-04-11T09:29:00.178Z,25.87
2023-04-11T09:31:29.250Z,26.35
2023-04-11T09:33:59.964Z,26.82
2023-04-11T09:36:30.441Z,27.27
2023-04-11T09:39:00.193Z,27.74
2023-04-11T09:41:29.507Z,28.12
2023-04-11T09:43:59.182Z,28.48
2023-04-11T09:46:28.696Z,28.79
2023-04-11T09:48:59.298Z,29.03
2023-04-11T09:51:36.369Z,29.25
2023-04-11T09:54:06.644Z,29.37
2023-04-11T09:56:37.093Z,29.42
2023-04-11T09:59:06.126Z,29.18
2023-04-11T10:01:36.737Z,28.99
2023-04-11T10:04:07.189Z,29.03
2023-04-11T10:06:37.474Z,29.24
2023-04-11T10:09:07.317Z,29.48
2023-04-11T10:11:39.754Z,29.76
2023-04-11T10:14:09.079Z,29.81
2023-04-11T10:16:39.481Z,29.67
2023-04-11T10:19:09.660Z,29.67
2023-04-11T10:21:39.387Z,29.60
2023-04-11T10:24:08.833Z,29.34
2023-04-11T10:26:38.233Z,28.95
2023-04-11T10:29:08.440Z,28.66
2023-04-11T10:31:38.776Z,28.76
2023-04-11T10:34:09.184Z,28.95
2023-04-11T10:36:39.462Z,29.00
2023-04-11T10:39:09.829Z,29.07
2023-04-11T10:41:39.680Z,29.06
2023-04-11T10:44:10.030Z,28.89
2023-04-11T10:46:40.117Z,28.79
2023-04-11T10:49:08.850Z,28.84
2023-04-11T10:51:39.528Z,28.89
2023-04-11T10:54:08.996Z,28.94
2023-04-11T10:56:38.545Z,29.01
2023-04-11T10:59:07.416Z,29.07
2023-04-11T11:01:42.914Z,29.09
2023-04-11T11:04:18.948Z,29.05
2023-04-11T11:06:56.680Z,28.92
2023-04-11T11:09:27.677Z,28.77
2023-04-11T11:11:58.015Z,28.61
2023-04-11T11:14:27.956Z,28.51
2023-04-11T11:16:56.772Z,28.32
2023-04-11T11:19:27.076Z,28.06
2023-04-11T11:21:57.294Z,27.77
2023-04-11T11:24:27.145Z,27.58
2023-04-11T11:26:56.482Z,27.47
2023-04-11T11:29:26.409Z,27.34
2023-04-11T11:31:55.406Z,27.27
2023-04-11T11:34:24.763Z,27.23
2023-04-11T11:36:55.182Z,27.16
2023-04-11T11:39:25.187Z,27.17
2023-04-11T11:41:53.772Z,27.12
2023-04-11T11:44:22.237Z,27.09
2023-04-11T11:46:50.850Z,27.11
2023-04-11T11:49:21.068Z,27.04
2023-04-11T11:51:51.294Z,26.86
2023-04-11T11:54:21.870Z,26.66
2023-04-11T11:56:51.696Z,26.61
2023-04-11T11:59:20.566Z,26.58
2023-04-11T12:01:50.004Z,26.61
2023-04-11T12:04:20.436Z,26.62
2023-04-11T12:06:50.814Z,26.62
2023-04-11T12:09:20.606Z,26.55
2023-04-11T12:11:49.963Z,26.50
2023-04-11T12:14:19.920Z,26.41
2023-04-11T12:16:49.170Z,26.27
2023-04-11T12:19:17.892Z,26.14
2023-04-11T12:21:48.195Z,26.06
2023-04-11T12:24:18.472Z,26.02
2023-04-11T12:27:05.551Z,25.96
2023-04-11T12:29:36.763Z,25.90
2023-04-11T12:32:05.415Z,25.87
2023-04-11T12:34:35.436Z,25.85
2023-04-11T12:37:03.714Z,25.97
2023-04-11T12:39:33.069Z,26.16
2023-04-11T12:42:03.332Z,26.35
2023-04-11T12:44:33.542Z,26.60
2023-04-11T12:47:03.892Z,26.81
2023-04-11T12:49:34.254Z,27.19
2023-04-11T12:52:04.114Z,27.73
2023-04-11T12:54:33.478Z,28.24
2023-04-11T12:57:03.365Z,28.75
2023-04-11T12:59:33.027Z,29.23
2023-04-11T13:02:03.574Z,29.72
2023-04-11T13:04:34.016Z,30.22
2023-04-11T13:07:04.532Z,29.96
2023-04-11T13:09:34.590Z,30.64
2023-04-11T13:12:02.514Z,30.91
2023-04-11T13:14:31.258Z,31.46
2023-04-11T13:17:00.640Z,31.89
2023-04-11T13:19:30.633Z,32.00
2023-04-11T13:21:59.399Z,32.47
2023-04-11T13:24:29.762Z,32.91
2023-04-11T13:27:00.056Z,33.30
2023-04-11T13:29:29.881Z,33.68
2023-04-11T13:31:59.357Z,33.99
2023-04-11T13:34:29.699Z,34.28
2023-04-11T13:37:00.077Z,34.59
2023-04-11T13:39:30.470Z,34.43
2023-04-11T13:42:00.711Z,33.10
2023-04-11T13:44:31.049Z,31.52
2023-04-11T13:47:00.555Z,30.83
2023-04-11T13:49:30.531Z,31.56
2023-04-11T13:52:00.043Z,32.58
2023-04-11T13:54:29.071Z,33.23
2023-04-11T13:56:59.593Z,33.97
2023-04-11T13:59:28.675Z,34.47
2023-04-11T14:01:58.091Z,34.78
2023-04-11T14:04:28.589Z,34.95
2023-04-11T14:06:57.824Z,34.78
2023-04-11T14:09:26.628Z,34.99
2023-04-11T14:11:57.109Z,35.18
2023-04-11T14:14:26.530Z,35.29
2023-04-11T14:16:57.013Z,35.36
2023-04-11T14:19:26.415Z,35.30
2023-04-11T14:21:56.704Z,35.21
2023-04-11T14:24:26.570Z,34.80
2023-04-11T14:26:55.659Z,33.34
2023-04-11T14:29:24.087Z,31.85
2023-04-11T14:31:52.453Z,30.78
2023-04-11T14:34:22.782Z,29.84
2023-04-11T14:36:53.049Z,29.05
2023-04-11T14:39:23.462Z,28.34
2023-04-11T14:41:53.281Z,27.77
2023-04-11T14:44:23.590Z,27.28
2023-04-11T14:46:53.937Z,26.88
2023-04-11T14:49:23.295Z,26.52
2023-04-11T14:51:54.160Z,26.25
2023-04-11T14:54:23.597Z,25.97
2023-04-11T14:56:52.907Z,25.74
2023-04-11T14:59:22.800Z,25.52
2023-04-11T15:01:52.566Z,25.35
2023-04-11T15:04:22.410Z,25.21
2023-04-11T15:06:51.459Z,25.07
2023-04-11T15:09:20.961Z,24.95
2023-04-11T15:11:51.331Z,24.82
2023-04-11T15:14:21.798Z,24.67
2023-04-11T15:16:51.696Z,24.58
2023-04-11T15:19:21.101Z,24.45
2023-04-11T15:21:51.180Z,24.34
2023-04-11T15:24:20.198Z,24.21
2023-04-11T15:26:50.501Z,24.11
2023-04-11T15:29:20.426Z,24.02
2023-04-11T15:31:50.840Z,23.93
2023-04-11T15:34:21.355Z,23.84
2023-04-11T15:36:50.344Z,23.76
2023-04-11T15:39:19.385Z,23.66
2023-04-11T15:41:48.043Z,23.59
2023-04-11T15:44:18.330Z,23.51
2023-04-11T15:46:49.548Z,23.46
2023-04-11T15:49:19.884Z,23.39
2023-04-11T15:51:50.279Z,23.34
2023-04-11T15:54:20.518Z,23.28
2023-04-11T15:56:50.899Z,23.24
2023-04-11T15:59:21.220Z,23.19
2023-04-11T16:01:51.170Z,23.13
2023-04-11T16:04:20.553Z,23.09
2023-04-11T16:06:50.980Z,23.04
2023-04-11T16:09:21.039Z,23.01
2023-04-11T16:11:49.772Z,22.95
2023-04-11T16:14:20.175Z,22.92
2023-04-11T16:16:48.813Z,22.87
2023-04-11T16:19:18.234Z,22.83
2023-04-11T16:21:48.508Z,22.80
2023-04-11T16:24:18.046Z,22.77
2023-04-11T16:26:46.784Z,22.73
2023-04-11T16:29:17.126Z,22.69
2023-04-11T16:31:47.661Z,22.66
2023-04-11T16:34:17.214Z,22.63
2023-04-11T16:36:47.767Z,22.58
2023-04-11T16:39:17.610Z,22.54
2023-04-11T16:41:46.482Z,22.51
2023-04-11T16:44:18.460Z,22.49
2023-04-11T16:46:48.162Z,22.45
2023-04-11T16:49:16.861Z,22.43
2023-04-11T16:51:47.007Z,22.41
2023-04-11T16:54:15.338Z,22.38
2023-04-11T16:56:44.740Z,22.32
2023-04-11T16:59:15.133Z,22.27
2023-04-11T17:01:43.874Z,22.25
2023-04-11T17:04:13.677Z,22.22
2023-04-11T17:06:42.540Z,22.19
2023-04-11T17:09:12.875Z,22.17
2023-04-11T17:11:43.178Z,22.13
2023-04-11T17:14:13.297Z,22.11
2023-04-11T17:16:45.364Z,22.08
2023-04-11T17:19:14.286Z,22.05
2023-04-11T17:21:43.661Z,22.02
2023-04-11T17:24:13.691Z,21.99
2023-04-11T17:26:41.996Z,21.94
2023-04-11T17:29:10.835Z,21.91
2023-04-11T17:31:40.237Z,21.90
2023-04-11T17:34:10.609Z,21.89
2023-04-11T17:36:40.932Z,21.87
2023-04-11T17:39:11.357Z,21.86
2023-04-11T17:41:41.633Z,21.84
2023-04-11T17:44:11.549Z,21.79
2023-04-11T17:46:39.937Z,21.73
2023-04-11T17:49:08.542Z,21.70
2023-04-11T17:51:42.913Z,21.66
2023-04-11T17:54:15.324Z,21.61
2023-04-11T17:56:45.294Z,21.57
2023-04-11T17:59:13.254Z,21.53
2023-04-11T18:01:41.996Z,21.50
2023-04-11T18:04:12.954Z,21.48
2023-04-11T18:06:43.083Z,21.43
2023-04-11T18:09:11.874Z,21.41
2023-04-11T18:11:42.153Z,21.40
2023-04-11T18:14:12.562Z,21.36
2023-04-11T18:16:42.414Z,21.34
2023-04-11T18:19:11.072Z,21.31
2023-04-11T18:21:39.966Z,21.29
2023-04-11T18:24:08.741Z,21.27
2023-04-11T18:26:37.231Z,21.24
2023-04-11T18:29:06.028Z,21.21
2023-04-11T18:31:36.422Z,21.20
2023-04-11T18:34:07.534Z,21.17
2023-04-11T18:36:38.437Z,21.16
2023-04-11T18:39:08.365Z,21.14
2023-04-11T18:41:37.844Z,21.12
2023-04-11T18:44:09.611Z,21.10
2023-04-11T18:46:41.128Z,21.08
2023-04-11T18:49:10.548Z,21.07
2023-04-11T18:51:41.066Z,21.05
2023-04-11T18:54:10.691Z,21.03
2023-04-11T18:56:40.493Z,21.02
2023-04-11T18:59:10.241Z,20.99
2023-04-11T19:01:40.470Z,20.97
2023-04-11T19:04:09.816Z,20.96
2023-04-11T19:06:39.286Z,20.94
2023-04-11T19:09:08.969Z,20.93
2023-04-11T19:11:41.494Z,20.90
2023-04-11T19:14:11.836Z,20.90
2023-04-11T19:16:42.297Z,20.89
2023-04-11T19:19:11.777Z,20.86
2023-04-11T19:21:41.431Z,20.86
2023-04-11T19:24:10.108Z,20.85
2023-04-11T19:26:40.364Z,20.84
2023-04-11T19:29:10.315Z,20.84
2023-04-11T19:31:39.374Z,20.83
2023-04-11T19:34:08.775Z,20.80
2023-04-11T19:36:39.148Z,20.78
2023-04-11T19:39:09.109Z,20.76
2023-04-11T19:41:38.539Z,20.75
2023-04-11T19:44:08.859Z,20.73
2023-04-11T19:46:39.249Z,20.70
2023-04-11T19:49:09.538Z,20.68
2023-04-11T19:51:39.337Z,20.67
2023-04-11T19:54:07.816Z,20.65
2023-04-11T19:56:37.155Z,20.63
2023-04-11T19:59:07.218Z,20.63
2023-04-11T20:01:35.590Z,20.61
2023-04-11T20:04:06.075Z,20.60
2023-04-11T20:06:36.856Z,20.57
2023-04-11T20:09:06.280Z,20.55
2023-04-11T20:11:36.326Z,20.55
2023-04-11T20:14:04.969Z,20.53
2023-04-11T20:16:35.319Z,20.51
2023-04-11T20:19:05.130Z,20.50
2023-04-11T20:21:33.853Z,20.47
2023-04-11T20:24:02.126Z,20.45
2023-04-11T20:26:31.055Z,20.45
2023-04-11T20:29:00.423Z,20.43
2023-04-11T20:31:30.795Z,20.41
2023-04-11T20:34:01.092Z,20.39
2023-04-11T20:36:30.919Z,20.37
2023-04-11T20:39:01.007Z,20.34
2023-04-11T20:41:29.872Z,20.33
2023-04-11T20:44:00.154Z,20.32
2023-04-11T20:46:30.974Z,20.29
2023-04-11T20:49:00.537Z,20.28
2023-04-11T20:51:28.376Z,20.26
2023-04-11T20:53:57.518Z,20.25
2023-04-11T20:56:27.085Z,20.23
2023-04-11T20:58:56.747Z,20.23
2023-04-11T21:01:25.538Z,20.20
2023-04-11T21:03:56.375Z,20.19
2023-04-11T21:06:27.086Z,20.19
2023-04-11T21:08:57.419Z,20.16
2023-04-11T21:11:27.775Z,20.16
2023-04-11T21:13:57.869Z,20.13
2023-04-11T21:16:27.370Z,20.11
2023-04-11T21:18:57.755Z,20.10
2023-04-11T21:21:27.243Z,20.08
2023-04-11T21:23:57.392Z,20.06
2023-04-11T21:26:26.227Z,20.05
2023-04-11T21:28:56.558Z,20.04
2023-04-11T21:31:26.518Z,20.02
2023-04-11T21:33:56.186Z,19.99
2023-04-11T21:36:26.630Z,19.99
2023-04-11T21:38:56.941Z,19.96
2023-04-11T21:41:26.038Z,19.94
2023-04-11T21:43:54.690Z,19.94
2023-04-11T21:46:25.025Z,19.92
2023-04-11T21:48:54.883Z,19.90
2023-04-11T21:51:24.100Z,19.90
2023-04-11T21:53:54.519Z,19.91
2023-04-11T21:56:24.924Z,19.90
2023-04-11T21:58:55.168Z,19.90
2023-04-11T22:01:25.507Z,19.86
2023-04-11T22:03:56.218Z,19.86
2023-04-11T22:06:27.116Z,19.85
2023-04-11T22:08:56.516Z,19.83
2023-04-11T22:11:26.863Z,19.83
2023-04-11T22:13:57.537Z,19.81
2023-04-11T22:16:28.028Z,19.81
2023-04-11T22:18:58.107Z,19.81
2023-04-11T22:21:26.529Z,19.79
2023-04-11T22:23:54.917Z,19.77
2023-04-11T22:26:23.806Z,19.76
2023-04-11T22:28:52.802Z,19.75
2023-04-11T22:31:21.274Z,19.73
2023-04-11T22:33:49.604Z,19.70
2023-04-11T22:36:18.471Z,19.70
2023-04-11T22:38:47.807Z,19.68
2023-04-11T22:41:18.158Z,19.67
2023-04-11T22:43:48.520Z,19.67
2023-04-11T22:46:18.588Z,19.65
2023-04-11T22:48:47.512Z,19.64
2023-04-11T22:51:17.832Z,19.62
2023-04-11T22:53:48.192Z,19.61
2023-04-11T22:56:18.562Z,19.60
2023-04-11T22:58:48.914Z,19.59
2023-04-11T23:01:19.326Z,19.57
2023-04-11T23:03:49.704Z,19.56
2023-04-11T23:06:20.000Z,19.55
2023-04-11T23:08:49.861Z,19.54
2023-04-11T23:11:19.218Z,19.53
2023-04-11T23:13:49.542Z,19.54
2023-04-11T23:16:18.191Z,19.51
2023-04-11T23:18:46.172Z,19.50
2023-04-11T23:21:14.559Z,19.49
2023-04-11T23:23:43.249Z,19.49
2023-04-11T23:26:13.320Z,19.46
2023-04-11T23:28:42.026Z,19.45
2023-04-11T23:31:12.536Z,19.43
2023-04-11T23:33:42.956Z,19.42
2023-04-11T23:36:12.866Z,19.42
2023-04-11T23:38:42.222Z,19.41
2023-04-11T23:41:12.565Z,19.39
2023-04-11T23:43:42.840Z,19.38
2023-04-11T23:46:12.405Z,19.37
2023-04-11T23:48:41.197Z,19.35
2023-04-11T23:51:11.004Z,19.33
2023-04-11T23:53:40.299Z,19.32
2023-04-11T23:56:10.638Z,19.31
2023-04-11T23:58:40.273Z,19.30
